This is the latest recevied weather packets stored in our database for station/object EA3ANS-1. If no packets are shown the sender has not sent any weather packets the latest 10 day(s).
| Time | Temp. | Humidity | Pressure | Rain* | Wind** | Luminosity | Snow |
|---|---|---|---|---|---|---|---|
| 1788005895 | 30.56° C | - | 1016.3 hPa | 0 mm | 1.34 m/s, 304° | - | - |
| 1788005294 | 30.56° C | - | 1016.5 hPa | 0 mm | 1.79 m/s, 263° | - | - |
| 1788004684 | 31.11° C | - | 1016.6 hPa | 0 mm | 4.02 m/s, 239° | - | - |
| 1788004087 | 30° C | - | 1016.7 hPa | 0 mm | 2.24 m/s, 266° | - | - |
| 1788003489 | 30° C | - | 1016.8 hPa | 0 mm | 4.02 m/s, 212° | - | - |
| 1788002892 | 30° C | - | 1017 hPa | 0 mm | 0.89 m/s, 307° | - | - |
| 1788002294 | 30° C | - | 1017.1 hPa | 0 mm | 2.24 m/s, 146° | - | - |
| 1788001688 | 30° C | - | 1017.3 hPa | 0 mm | 2.68 m/s, 134° | - | - |
| 1788001090 | 30.56° C | - | 1017.4 hPa | 0 mm | 0.89 m/s, 187° | - | - |
| 1788000486 | 28.89° C | - | 1017.5 hPa | 0 mm | 1.34 m/s, 163° | - | - |
| 1787999889 | 28.89° C | - | 1017.7 hPa | 0 mm | 2.24 m/s, 177° | - | - |
| 1787999291 | 28.89° C | - | 1017.8 hPa | 0 mm | 3.13 m/s, 132° | - | - |
| 1787998693 | 28.33° C | - | 1017.9 hPa | 0 mm | 1.34 m/s, 304° | - | - |
| 1787998094 | 28.33° C | - | 1018 hPa | 0 mm | 0.45 m/s, 139° | - | - |
| 1787997496 | 28.33° C | - | 1018.1 hPa | 0 mm | 1.34 m/s, 142° | - | - |
| 1787996899 | 27.78° C | - | 1018.3 hPa | 0 mm | 0 m/s | - | - |
| 1787996294 | 27.22° C | - | 1018.4 hPa | 0 mm | 0 m/s | - | - |
| 1787995689 | 26.67° C | - | 1018.5 hPa | 0 mm | 0 m/s | - | - |
| 1787995089 | 26.11° C | - | 1018.5 hPa | 0 mm | 0.45 m/s, 294° | - | - |
| 1787994491 | 25.56° C | - | 1018.5 hPa | 0 mm | 0 m/s | - | - |
| 1787993894 | 24.44° C | - | 1018.5 hPa | 0 mm | 2.24 m/s, 307° | - | - |
| 1787993292 | 23.89° C | - | 1018.4 hPa | 0 mm | 2.68 m/s, 293° | - | - |
| 1787992695 | 23.33° C | - | 1018.4 hPa | 0 mm | 2.68 m/s, 278° | - | - |
| 1787992091 | 22.78° C | - | 1018.4 hPa | 0 mm | 2.24 m/s, 312° | - | - |
| 1787991493 | 22.22° C | - | 1018.4 hPa | 0 mm | 2.68 m/s, 293° | - | - |
* Rain latest hour (hover to see other rain measurements)
** Current wind speed in m/s (hover to see current wind gust speed)